Time;durP1;ratioP1;P1;durP2;ratioP2;P2;SDS_P1;SDS_P2;PMS_P1;PMS_P2;Temp;Humidity;BMP_temperature;BMP_pressure;BME280_temperature;BME280_humidity;BME280_pressure;Samples;Min_cycle;Max_cycle;Signal;HPM_P1;HPM_P2
2021/07/12 00:00:19;;;;;;;;;;;;;;;20.40;64.83;97086.17;1826506;77;20092;-72
2021/07/12 00:02:48;;;;;;;;;;;;;;;20.38;64.89;97086.86;1807729;77;20447;-73
2021/07/12 00:05:15;;;;;;;;;;;;;;;20.37;65.21;97093.27;1841065;77;20124;-71
2021/07/12 00:07:41;;;;;;;;;;;;;;;20.37;64.70;97084.71;1834441;77;20136;-73
2021/07/12 00:10:10;;;;;;;;;;;;;;;20.37;65.23;97083.89;1837566;77;20088;-73
2021/07/12 00:12:37;;;;;;;;;;;;;;;20.35;64.47;97083.24;1844380;77;20156;-72
2021/07/12 00:15:06;;;;;;;;;;;;;;;20.33;63.65;97087.42;1844612;77;20437;-71
2021/07/12 00:17:32;;;;;;;;;;;;;;;20.31;64.90;97085.95;1843819;77;20205;-71
2021/07/12 00:19:58;;;;;;;;;;;;;;;20.19;63.57;97085.07;1834634;77;20076;-71
2021/07/12 00:22:24;;;;;;;;;;;;;;;20.13;62.86;97083.14;1835519;77;20455;-74
2021/07/12 00:24:50;;;;;;;;;;;;;;;20.11;62.57;97085.16;1845337;77;20511;-73
2021/07/12 00:27:16;;;;;;;;;;;;;;;20.07;62.68;97089.24;1846258;77;20103;-71
2021/07/12 00:29:43;;;;;;;;;;;;;;;20.06;63.48;97088.91;1835195;77;20436;-71
2021/07/12 00:32:09;;;;;;;;;;;;;;;20.02;63.91;97085.78;1848853;77;20148;-69
2021/07/12 00:34:36;;;;;;;;;;;;;;;19.96;64.02;97081.14;1842694;77;20151;-74
2021/07/12 00:37:02;;;;;;;;;;;;;;;19.90;63.77;97075.20;1836225;77;20088;-71
2021/07/12 00:39:29;;;;;;;;;;;;;;;19.85;64.29;97078.42;1835857;77;20104;-73
2021/07/12 00:41:55;;;;;;;;;;;;;;;19.80;62.80;97076.78;1833572;77;20115;-71
2021/07/12 00:44:21;;;;;;;;;;;;;;;19.76;63.68;97079.48;1835663;77;20110;-72
2021/07/12 00:46:47;;;;;;;;;;;;;;;19.71;63.91;97077.88;1848925;77;20380;-74
2021/07/12 00:49:14;;;;;;;;;;;;;;;19.49;64.00;97045.66;1849771;77;20385;-72
2021/07/12 00:51:40;;;;;;;;;;;;;;;19.55;63.60;97071.65;1848863;77;20080;-73
2021/07/12 00:54:06;;;;;;;;;;;;;;;19.49;64.96;97077.20;1837432;77;20103;-76
2021/07/12 00:56:33;;;;;;;;;;;;;;;19.42;65.22;97073.59;1843784;77;20096;-73
2021/07/12 00:59:02;;;;;;;;;;;;;;;19.39;64.92;97079.33;1842239;77;20259;-70
2021/07/12 01:01:29;;;;;;;;;;;;;;;19.34;64.57;97069.17;1840275;77;20149;-72
2021/07/12 01:03:57;;;;;;;;;;;;;;;19.32;64.67;97068.52;1846784;77;20134;-72
2021/07/12 01:06:25;;;;;;;;;;;;;;;19.26;66.28;97081.23;1847443;77;20097;-70
2021/07/12 01:08:52;;;;;;;;;;;;;;;19.18;66.12;97074.13;1770633;77;20108;-72
2021/07/12 01:11:30;;;;;;;;;;;;;;;19.13;65.66;97071.67;1845049;77;20135;-72
2021/07/12 01:14:10;;;;;;;;;;;;;;;19.08;65.45;97072.69;1844592;77;20166;-71
2021/07/12 01:16:53;;;;;;;;;;;;;;;19.02;65.37;97073.73;1832958;77;20099;-74
2021/07/12 01:19:52;;;;;;;;;;;;;;;18.98;65.42;97079.09;1826719;77;20137;-74
2021/07/12 01:22:49;;;;;;;;;;;;;;;18.95;65.95;97080.80;1816553;79;20092;-72
2021/07/12 01:25:34;;;;;;;;;;;;;;;18.89;65.54;97082.80;1745498;80;20107;-74
2021/07/12 01:28:10;;;;;;;;;;;;;;;18.82;65.98;97085.36;1741794;82;20106;-72
2021/07/12 01:31:01;;;;;;;;;;;;;;;18.78;65.46;97093.38;1751327;80;20127;-73
2021/07/12 01:33:47;;;;;;;;;;;;;;;18.71;65.47;97089.75;1788659;79;20100;-72
2021/07/12 01:36:23;;;;;;;;;;;;;;;18.64;65.80;97086.95;1764780;80;20102;-72
2021/07/12 01:38:57;;;;;;;;;;;;;;;18.61;67.57;97089.95;1758506;80;20160;-73
2021/07/12 01:41:57;;;;;;;;;;;;;;;18.54;67.50;97089.00;1789508;79;20103;-72
2021/07/12 01:44:45;;;;;;;;;;;;;;;18.50;66.39;97087.17;1770014;79;20097;-72
2021/07/12 01:47:15;;;;;;;;;;;;;;;18.48;66.03;97089.70;1790903;79;20400;-72
2021/07/12 01:50:03;;;;;;;;;;;;;;;18.45;65.87;97087.37;1789607;79;20414;-72
2021/07/12 01:52:55;;;;;;;;;;;;;;;18.41;66.23;97076.21;1773637;80;20143;-73
2021/07/12 01:55:38;;;;;;;;;;;;;;;18.37;65.61;97082.91;1796432;77;20127;-73
2021/07/12 01:58:11;;;;;;;;;;;;;;;18.32;67.24;97088.77;1818813;77;20448;-71
2021/07/12 02:00:41;;;;;;;;;;;;;;;18.25;66.91;97094.44;1848079;77;20392;-73
2021/07/12 02:03:10;;;;;;;;;;;;;;;18.19;67.08;97093.29;1819473;77;20088;-72
2021/07/12 02:05:38;;;;;;;;;;;;;;;18.16;67.23;97094.14;1847794;77;20088;-72
2021/07/12 02:08:08;;;;;;;;;;;;;;;18.14;67.20;97096.17;1831543;77;20093;-74
2021/07/12 02:10:35;;;;;;;;;;;;;;;18.14;65.41;97096.17;1791183;79;20256;-73
2021/07/12 02:13:05;;;;;;;;;;;;;;;18.14;66.57;97096.98;1773557;79;20090;-73
2021/07/12 02:15:34;;;;;;;;;;;;;;;18.13;66.68;97091.31;1849483;77;20112;-72
2021/07/12 02:18:04;;;;;;;;;;;;;;;18.16;67.51;97090.14;1838826;77;20123;-71
2021/07/12 02:20:33;;;;;;;;;;;;;;;18.19;67.22;97088.47;1840643;77;20404;-72
2021/07/12 02:23:00;;;;;;;;;;;;;;;18.22;67.79;97088.95;1815562;77;20098;-73
2021/07/12 02:25:28;;;;;;;;;;;;;;;18.23;66.64;97093.29;1845768;77;20179;-73
2021/07/12 02:27:55;;;;;;;;;;;;;;;18.28;67.18;97093.29;1846807;77;20140;-73
2021/07/12 02:30:22;;;;;;;;;;;;;;;18.33;66.91;97090.92;1845007;77;20100;-73
2021/07/12 02:32:50;;;;;;;;;;;;;;;18.37;67.21;97091.74;1847014;77;20404;-74
2021/07/12 02:35:17;;;;;;;;;;;;;;;18.44;67.24;97090.55;1795459;77;20420;-73
2021/07/12 02:37:46;;;;;;;;;;;;;;;18.49;67.26;97093.52;1837470;77;20397;-72
2021/07/12 02:40:18;;;;;;;;;;;;;;;18.55;66.78;97093.33;1844856;77;20092;-73
2021/07/12 02:42:48;;;;;;;;;;;;;;;18.56;66.70;97095.81;1845758;77;20523;-73
2021/07/12 02:45:16;;;;;;;;;;;;;;;18.58;67.02;97092.47;1842600;77;20114;-73
2021/07/12 02:47:45;;;;;;;;;;;;;;;18.62;66.62;97100.14;1839197;77;20135;-70
2021/07/12 02:50:12;;;;;;;;;;;;;;;18.64;66.73;97097.63;1815491;77;20380;-72
2021/07/12 02:52:45;;;;;;;;;;;;;;;18.52;67.13;97076.32;1845536;77;20385;-72
2021/07/12 02:55:12;;;;;;;;;;;;;;;18.67;65.39;97105.30;1847638;77;20226;-72
2021/07/12 02:57:40;;;;;;;;;;;;;;;18.64;66.43;97102.96;1842790;77;20421;-72
2021/07/12 03:00:09;;;;;;;;;;;;;;;18.67;66.94;97105.30;1846154;77;20119;-73
2021/07/12 03:02:36;;;;;;;;;;;;;;;18.71;66.94;97105.77;1837583;77;20132;-74
2021/07/12 03:05:06;;;;;;;;;;;;;;;18.71;66.99;97106.59;1845914;77;20162;-74
2021/07/12 03:07:39;;;;;;;;;;;;;;;18.72;66.59;97105.59;1849324;77;20088;-72
2021/07/12 03:10:12;;;;;;;;;;;;;;;18.77;67.54;97105.58;1849012;77;20203;-74
2021/07/12 03:12:45;;;;;;;;;;;;;;;18.82;67.23;97105.88;1845461;77;20112;-74
2021/07/12 03:15:12;;;;;;;;;;;;;;;18.83;67.01;97106.20;1833308;77;20396;-73
2021/07/12 03:17:43;;;;;;;;;;;;;;;18.83;67.05;97107.54;1836891;77;20417;-72
2021/07/12 03:20:11;;;;;;;;;;;;;;;18.84;67.19;97103.34;1845899;77;20140;-72
2021/07/12 03:22:39;;;;;;;;;;;;;;;18.82;66.92;97104.53;1847671;77;20411;-72
2021/07/12 03:25:07;;;;;;;;;;;;;;;18.81;67.00;97106.88;1850496;77;20412;-74
2021/07/12 03:27:34;;;;;;;;;;;;;;;18.80;67.11;97110.06;1818865;77;20128;-72
2021/07/12 03:30:01;;;;;;;;;;;;;;;18.77;65.60;97110.41;1849842;77;20162;-73
2021/07/12 03:32:32;;;;;;;;;;;;;;;18.77;66.17;97110.92;1847659;77;20123;-72
2021/07/12 03:35:01;;;;;;;;;;;;;;;18.77;66.48;97106.91;1843912;77;20104;-74
2021/07/12 03:37:29;;;;;;;;;;;;;;;18.77;66.37;97114.41;1847660;77;20466;-71
2021/07/12 03:39:56;;;;;;;;;;;;;;;18.79;65.57;97108.39;1851945;77;20111;-72
2021/07/12 03:42:23;;;;;;;;;;;;;;;18.82;66.36;97110.73;1839597;77;20088;-72
2021/07/12 03:44:53;;;;;;;;;;;;;;;18.87;66.26;97120.36;1844722;77;20126;-72
2021/07/12 03:47:28;;;;;;;;;;;;;;;18.93;66.17;97121.53;1835847;77;20096;-73
2021/07/12 03:50:05;;;;;;;;;;;;;;;18.98;65.70;97113.00;1829304;77;20127;-72
2021/07/12 03:52:34;;;;;;;;;;;;;;;19.01;64.85;97118.81;1844720;77;20144;-73
2021/07/12 03:55:00;;;;;;;;;;;;;;;19.07;65.51;97118.62;1839777;77;20192;-72
2021/07/12 03:57:26;;;;;;;;;;;;;;;19.15;65.32;97121.23;1836937;77;20116;-73
2021/07/12 03:59:52;;;;;;;;;;;;;;;19.25;65.34;97114.82;1839006;77;20107;-73
2021/07/12 04:02:18;;;;;;;;;;;;;;;19.43;65.32;97116.69;1846870;77;20124;-73
2021/07/12 04:04:46;;;;;;;;;;;;;;;19.77;65.14;97119.41;1846113;77;20108;-74
2021/07/12 04:07:13;;;;;;;;;;;;;;;20.24;64.42;97117.48;1846929;77;20101;-75
2021/07/12 04:09:41;;;;;;;;;;;;;;;20.76;63.75;97113.53;1846857;77;20115;-73
2021/07/12 04:12:07;;;;;;;;;;;;;;;21.32;62.95;97118.77;1846126;77;20225;-73
2021/07/12 04:14:35;;;;;;;;;;;;;;;21.84;61.09;97122.15;1846547;77;20388;-73
2021/07/12 04:17:02;;;;;;;;;;;;;;;22.29;60.14;97113.79;1849191;77;20394;-73
2021/07/12 04:19:28;;;;;;;;;;;;;;;22.85;59.51;97116.05;1839525;77;20152;-73
2021/07/12 04:21:54;;;;;;;;;;;;;;;23.36;58.33;97113.42;1834332;77;20096;-73
2021/07/12 04:24:20;;;;;;;;;;;;;;;23.82;55.85;97111.77;1849040;77;20095;-74
2021/07/12 04:26:46;;;;;;;;;;;;;;;24.31;55.13;97111.03;1838456;77;20118;-72
2021/07/12 04:29:13;;;;;;;;;;;;;;;24.81;51.63;97109.14;1849791;77;20137;-73
2021/07/12 04:31:39;;;;;;;;;;;;;;;25.24;52.49;97111.72;1843434;77;20176;-73
2021/07/12 04:34:05;;;;;;;;;;;;;;;25.71;50.96;97110.05;1846223;77;20151;-74
2021/07/12 04:36:31;;;;;;;;;;;;;;;26.14;51.43;97110.63;1841143;78;20156;-73
2021/07/12 04:39:00;;;;;;;;;;;;;;;26.62;48.29;97105.55;1828981;77;20177;-75
2021/07/12 04:41:27;;;;;;;;;;;;;;;27.07;46.81;97100.34;1825469;78;20108;-73
2021/07/12 04:43:53;;;;;;;;;;;;;;;27.51;45.15;97091.50;1839442;77;20163;-74
2021/07/12 04:46:19;;;;;;;;;;;;;;;27.98;44.92;97096.13;1837370;77;20152;-74
2021/07/12 04:48:45;;;;;;;;;;;;;;;28.36;43.14;97092.68;1832240;77;20104;-74
2021/07/12 04:51:11;;;;;;;;;;;;;;;28.66;43.41;97092.50;1822876;77;20119;-73
2021/07/12 04:53:37;;;;;;;;;;;;;;;29.11;42.08;97100.45;1841870;77;20205;-73
2021/07/12 04:56:07;;;;;;;;;;;;;;;29.40;40.60;97095.55;1843595;77;20505;-74
2021/07/12 04:58:34;;;;;;;;;;;;;;;29.80;40.74;97098.67;1845610;77;20116;-72
2021/07/12 05:01:00;;;;;;;;;;;;;;;30.24;38.72;97099.36;1847631;77;20160;-73
2021/07/12 05:03:30;;;;;;;;;;;;;;;30.59;38.57;97099.58;1846589;77;20088;-75
2021/07/12 05:05:56;;;;;;;;;;;;;;;30.95;37.62;97093.76;1841885;77;20179;-74
2021/07/12 05:08:22;;;;;;;;;;;;;;;31.34;35.89;97103.70;1829886;77;20127;-74
2021/07/12 05:10:48;;;;;;;;;;;;;;;31.66;35.96;97095.55;1837325;77;20124;-75
2021/07/12 05:13:14;;;;;;;;;;;;;;;31.97;35.55;97099.88;1844946;77;20124;-74
2021/07/12 05:15:42;;;;;;;;;;;;;;;32.14;34.56;97094.84;1840401;77;20202;-72
2021/07/12 05:18:08;;;;;;;;;;;;;;;32.42;36.25;97097.75;1826822;77;20091;-72
2021/07/12 05:20:36;;;;;;;;;;;;;;;32.57;35.16;97095.64;1839448;77;20088;-74
2021/07/12 05:23:02;;;;;;;;;;;;;;;32.93;34.11;97094.44;1846556;77;20089;-73
2021/07/12 05:25:28;;;;;;;;;;;;;;;33.22;32.66;97093.16;1846688;77;20445;-73
2021/07/12 05:27:54;;;;;;;;;;;;;;;33.42;32.54;97095.13;1844190;77;20429;-74
2021/07/12 05:30:21;;;;;;;;;;;;;;;33.69;32.34;97095.41;1846003;77;20412;-73
2021/07/12 05:32:47;;;;;;;;;;;;;;;33.89;32.01;97095.97;1844496;77;20140;-73
2021/07/12 05:35:13;;;;;;;;;;;;;;;34.09;33.38;97100.05;1838122;77;20157;-71
2021/07/12 05:37:41;;;;;;;;;;;;;;;33.67;32.24;97101.69;1845115;77;20137;-73
2021/07/12 05:40:08;;;;;;;;;;;;;;;33.63;33.92;97096.79;1849992;77;20373;-72
2021/07/12 05:42:35;;;;;;;;;;;;;;;33.67;33.46;97090.23;1845054;77;20178;-73
2021/07/12 05:45:03;;;;;;;;;;;;;;;33.90;31.08;97093.52;1847042;77;20388;-74
2021/07/12 05:47:29;;;;;;;;;;;;;;;34.04;31.56;97094.60;1840937;77;20139;-73
2021/07/12 05:49:55;;;;;;;;;;;;;;;33.97;31.71;97094.60;1831492;77;20138;-74
2021/07/12 05:52:21;;;;;;;;;;;;;;;33.98;30.47;97094.88;1847543;77;20115;-74
2021/07/12 05:54:47;;;;;;;;;;;;;;;33.81;32.03;97092.39;1847473;77;21112;-73
2021/07/12 05:57:13;;;;;;;;;;;;;;;33.86;31.57;97091.88;1844180;77;20534;-74
2021/07/12 05:59:39;;;;;;;;;;;;;;;33.48;33.20;97095.39;1843713;77;20478;-73
2021/07/12 06:02:07;;;;;;;;;;;;;;;33.07;36.31;97093.95;1842650;77;20124;-72
2021/07/12 06:04:34;;;;;;;;;;;;;;;32.79;35.15;97091.39;1845754;77;20164;-72
2021/07/12 06:07:00;;;;;;;;;;;;;;;31.99;34.82;97088.19;1838345;77;20116;-72
2021/07/12 06:09:26;;;;;;;;;;;;;;;31.88;35.96;97095.48;1844637;77;20116;-73
2021/07/12 06:11:52;;;;;;;;;;;;;;;31.21;34.86;97095.41;1847299;77;20103;-74
2021/07/12 06:14:19;;;;;;;;;;;;;;;31.43;34.95;97090.71;1838143;77;20171;-73
2021/07/12 06:16:45;;;;;;;;;;;;;;;31.60;34.30;97087.06;1845363;77;20119;-73
2021/07/12 06:19:13;;;;;;;;;;;;;;;31.58;35.37;97086.50;1836895;77;20158;-73
2021/07/12 06:21:39;;;;;;;;;;;;;;;31.75;36.34;97090.46;1831579;77;20096;-71
2021/07/12 06:24:05;;;;;;;;;;;;;;;31.77;35.61;97087.78;1834760;77;20147;-74
2021/07/12 06:26:31;;;;;;;;;;;;;;;31.91;34.43;97090.05;1836107;77;20087;-72
2021/07/12 06:28:57;;;;;;;;;;;;;;;32.08;33.58;97083.89;1841274;77;20092;-70
2021/07/12 06:31:23;;;;;;;;;;;;;;;31.89;35.00;97084.86;1846935;77;20397;-73
2021/07/12 06:33:49;;;;;;;;;;;;;;;31.91;33.58;97084.06;1826164;77;20270;-74
2021/07/12 06:36:15;;;;;;;;;;;;;;;32.11;34.52;97084.45;1830526;77;20164;-72
2021/07/12 06:38:42;;;;;;;;;;;;;;;31.76;34.64;97088.86;1838412;77;20088;-73
2021/07/12 06:41:08;;;;;;;;;;;;;;;31.19;34.90;97084.77;1835166;77;20088;-72
2021/07/12 06:43:34;;;;;;;;;;;;;;;31.27;34.88;97091.66;1844900;77;20088;-71
2021/07/12 06:46:02;;;;;;;;;;;;;;;31.35;35.48;97087.66;1845302;77;20091;-72
2021/07/12 06:48:28;;;;;;;;;;;;;;;31.42;35.46;97089.06;1843753;77;20120;-72
2021/07/12 06:50:56;;;;;;;;;;;;;;;31.86;35.34;97090.83;1844659;77;20105;-74
2021/07/12 06:53:22;;;;;;;;;;;;;;;31.60;35.04;97091.16;1847425;77;20167;-72
2021/07/12 06:55:49;;;;;;;;;;;;;;;31.34;35.46;97087.38;1828862;77;20373;-77
2021/07/12 06:58:15;;;;;;;;;;;;;;;31.07;35.88;97084.08;1828471;77;20408;-73
2021/07/12 07:00:41;;;;;;;;;;;;;;;30.98;36.23;97090.51;1833282;77;20236;-73
2021/07/12 07:03:08;;;;;;;;;;;;;;;30.57;37.08;97083.24;1835823;77;20144;-73
2021/07/12 07:05:36;;;;;;;;;;;;;;;30.72;37.21;97085.33;1821289;77;20128;-73
2021/07/12 07:08:04;;;;;;;;;;;;;;;30.95;37.13;97086.95;1846294;77;20159;-71
2021/07/12 07:10:33;;;;;;;;;;;;;;;30.68;37.77;97083.11;1840829;77;20164;-71
2021/07/12 07:12:59;;;;;;;;;;;;;;;30.41;38.38;97092.51;1842694;77;20496;-72
2021/07/12 07:15:25;;;;;;;;;;;;;;;30.37;38.90;97082.67;1841095;77;20147;-73
2021/07/12 07:17:52;;;;;;;;;;;;;;;30.52;38.26;97082.09;1834283;77;20132;-74
2021/07/12 07:20:20;;;;;;;;;;;;;;;30.69;37.89;97083.39;1843679;77;20108;-72
2021/07/12 07:22:46;;;;;;;;;;;;;;;30.95;37.54;97078.23;1842571;77;20119;-74
2021/07/12 07:25:14;;;;;;;;;;;;;;;30.82;37.85;97081.34;1845303;77;20115;-74
2021/07/12 07:27:42;;;;;;;;;;;;;;;30.79;38.19;97072.35;1844468;77;20100;-73
2021/07/12 07:30:09;;;;;;;;;;;;;;;30.87;38.33;97077.34;1836821;77;20187;-73
2021/07/12 07:32:37;;;;;;;;;;;;;;;30.99;37.89;97079.39;1835417;77;20097;-72
2021/07/12 07:35:04;;;;;;;;;;;;;;;31.06;37.98;97082.44;1809869;77;20128;-71
2021/07/12 07:37:30;;;;;;;;;;;;;;;30.83;38.21;97081.11;1831768;77;20147;-74
2021/07/12 07:39:58;;;;;;;;;;;;;;;30.46;39.18;97076.28;1848102;77;20100;-73
2021/07/12 07:42:24;;;;;;;;;;;;;;;30.73;38.77;97084.23;1839032;77;20096;-72
2021/07/12 07:44:51;;;;;;;;;;;;;;;30.67;39.33;97077.94;1848205;78;20499;-75
2021/07/12 07:47:17;;;;;;;;;;;;;;;30.98;38.76;97081.83;1839580;77;20116;-73
2021/07/12 07:49:43;;;;;;;;;;;;;;;30.96;38.33;97079.89;1847665;77;20096;-72
2021/07/12 07:52:09;;;;;;;;;;;;;;;30.92;37.41;97082.02;1840834;77;20393;-72
2021/07/12 07:54:35;;;;;;;;;;;;;;;30.99;37.48;97082.11;1828903;77;20100;-73
2021/07/12 07:57:02;;;;;;;;;;;;;;;31.25;38.03;97073.39;1823912;77;20096;-75
2021/07/12 07:59:28;;;;;;;;;;;;;;;31.43;37.10;97075.73;1822843;77;20096;-73
2021/07/12 08:01:54;;;;;;;;;;;;;;;31.65;37.05;97080.84;1847515;77;20170;-77
2021/07/12 08:04:20;;;;;;;;;;;;;;;31.81;36.03;97083.99;1835742;77;20349;-73
2021/07/12 08:06:46;;;;;;;;;;;;;;;32.09;35.17;97082.00;1850483;77;20400;-72
2021/07/12 08:09:12;;;;;;;;;;;;;;;31.91;35.03;97082.70;1833133;77;20420;-73
2021/07/12 08:11:40;;;;;;;;;;;;;;;31.65;33.52;97076.20;1846060;77;20143;-72
2021/07/12 08:14:06;;;;;;;;;;;;;;;31.41;31.51;97076.56;1829774;77;20091;-73
2021/07/12 08:16:34;;;;;;;;;;;;;;;31.59;33.95;97078.61;1840692;77;20096;-74
2021/07/12 08:19:00;;;;;;;;;;;;;;;31.68;32.68;97078.45;1838686;77;20096;-73
2021/07/12 08:21:26;;;;;;;;;;;;;;;31.75;32.93;97079.04;1839896;77;20099;-73
2021/07/12 08:23:52;;;;;;;;;;;;;;;32.04;32.80;97073.25;1842938;77;20128;-72
2021/07/12 08:26:18;;;;;;;;;;;;;;;32.38;32.96;97075.64;1834018;77;20119;-75
2021/07/12 08:28:44;;;;;;;;;;;;;;;32.48;31.50;97081.67;1837449;77;20104;-73
2021/07/12 08:31:11;;;;;;;;;;;;;;;32.35;32.11;97077.52;1846812;77;20187;-77
2021/07/12 08:33:40;;;;;;;;;;;;;;;32.58;32.16;97081.45;1840698;77;20199;-75
2021/07/12 08:36:06;;;;;;;;;;;;;;;32.47;32.19;97087.41;1850422;78;20095;-75
2021/07/12 08:38:32;;;;;;;;;;;;;;;32.27;30.96;97081.31;1837764;77;20187;-75
2021/07/12 08:40:59;;;;;;;;;;;;;;;32.23;31.22;97085.11;1833020;77;20404;-74
2021/07/12 08:43:25;;;;;;;;;;;;;;;31.68;31.70;97079.81;1822977;77;20103;-72
2021/07/12 08:45:51;;;;;;;;;;;;;;;31.55;31.81;97083.77;1828258;77;20112;-75
2021/07/12 08:48:18;;;;;;;;;;;;;;;31.72;32.78;97088.28;1841298;77;20088;-72
2021/07/12 08:50:45;;;;;;;;;;;;;;;31.87;32.53;97088.39;1843724;77;20107;-74
2021/07/12 08:53:14;;;;;;;;;;;;;;;31.67;32.00;97090.42;1832822;77;20088;-75
2021/07/12 08:55:43;;;;;;;;;;;;;;;31.55;31.88;97085.12;1836350;77;20385;-74
2021/07/12 08:58:25;;;;;;;;;;;;;;;31.40;31.92;97083.61;1828322;77;20374;-76
2021/07/12 09:00:55;;;;;;;;;;;;;;;31.14;31.59;97081.45;1830762;77;20417;-75
2021/07/12 09:03:27;;;;;;;;;;;;;;;31.28;32.18;97082.41;1842943;77;20141;-75
2021/07/12 09:06:06;;;;;;;;;;;;;;;31.38;32.27;97072.98;1848575;77;20515;-74
2021/07/12 09:08:51;;;;;;;;;;;;;;;31.36;31.44;97073.77;1828569;77;20092;-74
2021/07/12 09:11:27;;;;;;;;;;;;;;;31.37;32.16;97069.97;1838555;77;20234;-73
2021/07/12 09:14:11;;;;;;;;;;;;;;;31.41;31.46;97065.67;1840191;77;20087;-72
2021/07/12 09:16:43;;;;;;;;;;;;;;;31.54;31.25;97067.66;1826809;77;20106;-74
2021/07/12 09:19:32;;;;;;;;;;;;;;;31.50;31.32;97071.45;1815963;77;20098;-73
2021/07/12 09:22:10;;;;;;;;;;;;;;;31.48;31.00;97061.90;1808061;78;20098;-79
2021/07/12 09:24:56;;;;;;;;;;;;;;;31.53;32.07;97066.85;1814719;78;20107;-73
2021/07/12 09:27:26;;;;;;;;;;;;;;;31.65;30.99;97064.50;1806297;79;20097;-74
2021/07/12 09:29:57;;;;;;;;;;;;;;;31.76;31.40;97067.06;1814844;79;20110;-74
2021/07/12 09:32:26;;;;;;;;;;;;;;;31.75;31.20;97071.39;1812827;78;20118;-73
2021/07/12 09:34:57;;;;;;;;;;;;;;;31.81;31.30;97061.36;1799805;79;20107;-74
2021/07/12 09:37:25;;;;;;;;;;;;;;;31.88;30.40;97064.14;1810549;79;20139;-72
2021/07/12 09:39:53;;;;;;;;;;;;;;;31.89;30.89;97055.41;1811124;79;20395;-74
2021/07/12 09:42:27;;;;;;;;;;;;;;;31.86;29.86;97060.86;1816307;79;20117;-74
2021/07/12 09:44:59;;;;;;;;;;;;;;;31.65;28.47;97061.22;1813114;79;20103;-73
2021/07/12 09:47:28;;;;;;;;;;;;;;;31.62;31.02;97063.93;1810332;79;20424;-73
2021/07/12 09:50:04;;;;;;;;;;;;;;;31.63;31.14;97055.20;1819098;78;20118;-74
2021/07/12 09:52:39;;;;;;;;;;;;;;;31.61;31.07;97059.56;1812947;78;20094;-74
2021/07/12 09:55:06;;;;;;;;;;;;;;;31.54;30.73;97048.59;1811002;78;20114;-73
2021/07/12 09:57:33;;;;;;;;;;;;;;;31.49;31.14;97046.66;1814127;79;20442;-73
2021/07/12 10:00:06;;;;;;;;;;;;;;;31.46;30.18;97048.00;1816371;78;20391;-73
2021/07/12 10:02:42;;;;;;;;;;;;;;;31.26;30.68;97039.13;1816051;78;20435;-73
2021/07/12 10:05:10;;;;;;;;;;;;;;;31.14;31.02;97046.63;1814922;79;20159;-75
2021/07/12 10:07:37;;;;;;;;;;;;;;;30.92;31.22;97040.66;1816280;78;20384;-74
2021/07/12 10:10:06;;;;;;;;;;;;;;;30.88;31.09;97042.26;1814661;78;20098;-74
2021/07/12 10:12:32;;;;;;;;;;;;;;;30.86;31.17;97040.33;1815229;79;20173;-74
2021/07/12 10:14:58;;;;;;;;;;;;;;;30.78;31.58;97042.14;1814917;79;20139;-73
2021/07/12 10:17:24;;;;;;;;;;;;;;;30.68;31.26;97039.59;1814288;79;20235;-73
2021/07/12 10:19:50;;;;;;;;;;;;;;;30.67;31.51;97046.66;1814166;79;20512;-75
2021/07/12 10:22:18;;;;;;;;;;;;;;;30.60;32.14;97046.84;1831563;77;20092;-74
2021/07/12 10:24:46;;;;;;;;;;;;;;;30.65;32.17;97048.25;1836488;77;20361;-71
2021/07/12 10:27:27;;;;;;;;;;;;;;;30.74;31.88;97051.87;1814893;78;20396;-74
2021/07/12 10:29:55;;;;;;;;;;;;;;;30.74;32.12;97047.80;1825646;77;20210;-74
2021/07/12 10:32:26;;;;;;;;;;;;;;;30.76;32.41;97043.77;1828143;77;20128;-73
2021/07/12 10:34:55;;;;;;;;;;;;;;;30.79;32.10;97043.23;1844103;77;20088;-75
2021/07/12 10:37:29;;;;;;;;;;;;;;;30.81;31.82;97045.72;1834043;77;20163;-73
2021/07/12 10:40:05;;;;;;;;;;;;;;;30.64;31.13;97051.23;1843549;77;20174;-73
2021/07/12 10:42:46;;;;;;;;;;;;;;;30.56;31.68;97047.60;1844607;77;20144;-72
2021/07/12 10:45:24;;;;;;;;;;;;;;;30.60;31.31;97047.36;1834505;77;20097;-71
2021/07/12 10:47:56;;;;;;;;;;;;;;;30.64;31.22;97039.00;1845977;77;20084;-75
2021/07/12 10:50:45;;;;;;;;;;;;;;;30.69;31.80;97030.88;1831980;77;20101;-72
2021/07/12 10:53:18;;;;;;;;;;;;;;;30.78;31.35;97022.55;1824845;78;20140;-72
2021/07/12 10:56:03;;;;;;;;;;;;;;;30.84;31.34;97021.55;1810459;77;20172;-74
2021/07/12 10:58:37;;;;;;;;;;;;;;;30.91;32.08;97017.23;1829270;77;20127;-73
2021/07/12 11:01:05;;;;;;;;;;;;;;;31.01;31.91;97020.62;1830257;77;20409;-71
2021/07/12 11:03:43;;;;;;;;;;;;;;;31.11;31.45;97017.19;1819824;78;20404;-73
2021/07/12 11:06:14;;;;;;;;;;;;;;;31.17;31.51;97019.42;1821849;78;20097;-72
2021/07/12 11:08:43;;;;;;;;;;;;;;;31.29;31.06;97018.17;1824156;78;20121;-73
2021/07/12 11:11:11;;;;;;;;;;;;;;;31.34;29.57;97016.59;1819663;78;20469;-72
2021/07/12 11:13:57;;;;;;;;;;;;;;;31.32;30.61;97010.05;1833391;77;20399;-71
2021/07/12 11:16:29;;;;;;;;;;;;;;;31.29;29.00;97000.48;1830303;77;20156;-70
2021/07/12 11:18:55;;;;;;;;;;;;;;;31.29;30.38;97007.28;1842063;77;20179;-72
2021/07/12 11:21:29;;;;;;;;;;;;;;;30.98;29.13;97002.08;1817954;77;20208;-72
2021/07/12 11:23:58;;;;;;;;;;;;;;;30.97;30.29;96998.55;1799286;77;20105;-72
2021/07/12 11:26:29;;;;;;;;;;;;;;;30.97;30.50;96991.74;1800775;77;20174;-72
2021/07/12 11:28:58;;;;;;;;;;;;;;;31.02;30.64;96991.49;1784378;77;20438;-73
2021/07/12 11:31:40;;;;;;;;;;;;;;;31.09;31.13;96985.32;1836946;77;20502;-71
2021/07/12 11:34:09;;;;;;;;;;;;;;;31.16;30.21;96987.31;1832767;77;20145;-73
2021/07/12 11:36:35;;;;;;;;;;;;;;;31.29;29.06;96981.98;1839776;77;20401;-72
2021/07/12 11:39:04;;;;;;;;;;;;;;;31.23;28.31;96986.55;1844600;77;20476;-72
2021/07/12 11:41:31;;;;;;;;;;;;;;;31.20;29.41;96984.34;1838374;77;20136;-75
2021/07/12 11:44:08;;;;;;;;;;;;;;;31.12;29.45;96976.66;1841960;77;20148;-72
2021/07/12 11:46:40;;;;;;;;;;;;;;;31.13;30.10;96971.49;1810324;77;20420;-76
2021/07/12 11:49:13;;;;;;;;;;;;;;;31.03;28.74;96964.05;1820980;78;20136;-72
2021/07/12 11:51:40;;;;;;;;;;;;;;;30.96;28.36;96963.41;1802462;78;20128;-73
2021/07/12 11:54:24;;;;;;;;;;;;;;;30.92;28.65;96960.94;1818682;79;20403;-77
2021/07/12 11:57:00;;;;;;;;;;;;;;;30.90;29.39;96956.30;1808625;77;20406;-75
2021/07/12 11:59:29;;;;;;;;;;;;;;;30.97;29.85;96957.73;1821425;77;20094;-76
2021/07/12 12:02:07;;;;;;;;;;;;;;;31.13;29.63;96951.08;1815387;78;20122;-77
2021/07/12 12:04:51;;;;;;;;;;;;;;;31.28;29.49;96944.94;1835759;77;20210;-76
2021/07/12 12:07:22;;;;;;;;;;;;;;;31.42;29.59;96933.86;1818234;78;20094;-78
2021/07/12 12:09:51;;;;;;;;;;;;;;;31.66;29.42;96932.13;1813010;78;20172;-73
2021/07/12 12:12:30;;;;;;;;;;;;;;;31.77;28.14;96942.55;1819266;78;20142;-77
2021/07/12 12:15:03;;;;;;;;;;;;;;;31.74;28.42;96938.46;1818744;77;20177;-79
2021/07/12 12:17:29;;;;;;;;;;;;;;;31.79;28.30;96932.22;1803772;79;20122;-76
2021/07/12 12:20:13;;;;;;;;;;;;;;;31.83;27.45;96937.95;1815695;78;20094;-78
2021/07/12 12:23:04;;;;;;;;;;;;;;;31.85;28.34;96938.52;1791207;77;20096;-76
2021/07/12 12:25:36;;;;;;;;;;;;;;;32.01;29.58;96942.14;1821903;77;20108;-75
2021/07/12 12:28:04;;;;;;;;;;;;;;;32.14;28.59;96946.28;1832591;77;20133;-76
2021/07/12 12:30:31;;;;;;;;;;;;;;;32.21;27.83;96943.56;1813251;77;20104;-78
2021/07/12 12:32:59;;;;;;;;;;;;;;;32.18;27.51;96936.47;1839070;77;20097;-79
2021/07/12 12:35:28;;;;;;;;;;;;;;;32.18;27.71;96937.30;1840057;77;20131;-75
2021/07/12 12:37:56;;;;;;;;;;;;;;;32.29;28.42;96936.82;1823680;77;20210;-74
2021/07/12 12:40:25;;;;;;;;;;;;;;;32.38;27.38;96935.21;1812445;77;20096;-77
2021/07/12 12:42:55;;;;;;;;;;;;;;;32.45;27.43;96933.59;1821645;77;20132;-77
2021/07/12 12:45:27;;;;;;;;;;;;;;;32.61;27.50;96935.83;1821214;77;20166;-75
2021/07/12 12:47:57;;;;;;;;;;;;;;;32.77;27.53;96931.75;1818910;77;20286;-77
2021/07/12 12:50:24;;;;;;;;;;;;;;;32.91;27.27;96926.05;1829798;77;20151;-76
2021/07/12 12:52:50;;;;;;;;;;;;;;;33.05;28.69;96918.69;1830944;77;20380;-78
2021/07/12 12:55:17;;;;;;;;;;;;;;;33.01;25.95;96921.95;1825563;77;20101;-76
2021/07/12 12:57:47;;;;;;;;;;;;;;;33.00;26.28;96922.23;1828581;77;20420;-72
2021/07/12 13:00:18;;;;;;;;;;;;;;;33.04;26.54;96920.59;1830532;77;20380;-75